sensor_id;sensor_type;location;lat;lon;timestamp;pressure;altitude;pressure_sealevel;temperature;humidity
36748;BME280;22716;51.556;5.080;2023-08-31T00:00:11;100178.19;;;13.08;100.00
36748;BME280;22716;51.556;5.080;2023-08-31T00:02:41;100173.16;;;13.00;100.00
36748;BME280;22716;51.556;5.080;2023-08-31T00:05:09;100173.25;;;12.97;100.00
36748;BME280;22716;51.556;5.080;2023-08-31T00:07:39;100167.13;;;12.97;100.00
36748;BME280;22716;51.556;5.080;2023-08-31T00:10:07;100174.19;;;12.94;100.00
36748;BME280;22716;51.556;5.080;2023-08-31T00:12:40;100146.59;;;12.80;100.00
36748;BME280;22716;51.556;5.080;2023-08-31T00:15:09;100160.38;;;12.88;100.00
36748;BME280;22716;51.556;5.080;2023-08-31T00:17:39;100162.16;;;12.87;100.00
36748;BME280;22716;51.556;5.080;2023-08-31T00:20:09;100163.03;;;12.86;100.00
36748;BME280;22716;51.556;5.080;2023-08-31T00:22:38;100163.91;;;12.87;100.00
36748;BME280;22716;51.556;5.080;2023-08-31T00:25:07;100140.69;;;12.73;100.00
36748;BME280;22716;51.556;5.080;2023-08-31T00:27:36;100160.50;;;12.83;100.00
36748;BME280;22716;51.556;5.080;2023-08-31T00:30:10;100163.22;;;12.80;100.00
36748;BME280;22716;51.556;5.080;2023-08-31T00:32:40;100164.19;;;12.78;100.00
36748;BME280;22716;51.556;5.080;2023-08-31T00:35:09;100164.19;;;12.78;100.00
36748;BME280;22716;51.556;5.080;2023-08-31T00:37:38;100151.38;;;12.67;100.00
36748;BME280;22716;51.556;5.080;2023-08-31T00:40:07;100161.66;;;12.75;100.00
36748;BME280;22716;51.556;5.080;2023-08-31T00:42:39;100171.19;;;12.77;100.00
36748;BME280;22716;51.556;5.080;2023-08-31T00:45:11;100161.72;;;12.73;100.00
36748;BME280;22716;51.556;5.080;2023-08-31T00:47:40;100165.28;;;12.71;100.00
36748;BME280;22716;51.556;5.080;2023-08-31T00:50:09;100167.94;;;12.69;100.00
36748;BME280;22716;51.556;5.080;2023-08-31T00:52:39;100167.06;;;12.70;100.00
36748;BME280;22716;51.556;5.080;2023-08-31T00:55:10;100164.53;;;12.67;100.00
36748;BME280;22716;51.556;5.080;2023-08-31T00:57:39;100170.72;;;12.65;100.00
36748;BME280;22716;51.556;5.080;2023-08-31T01:00:12;100165.47;;;12.65;100.00
36748;BME280;22716;51.556;5.080;2023-08-31T01:02:49;100155.84;;;12.64;100.00
36748;BME280;22716;51.556;5.080;2023-08-31T01:05:29;100165.56;;;12.62;100.00
36748;BME280;22716;51.556;5.080;2023-08-31T01:08:05;100167.44;;;12.57;100.00
36748;BME280;22716;51.556;5.080;2023-08-31T01:10:43;100163.69;;;12.65;100.00
36748;BME280;22716;51.556;5.080;2023-08-31T01:13:15;100168.03;;;12.66;100.00
36748;BME280;22716;51.556;5.080;2023-08-31T01:15:53;100163.59;;;12.68;100.00
36748;BME280;22716;51.556;5.080;2023-08-31T01:18:24;100160.94;;;12.70;100.00
36748;BME280;22716;51.556;5.080;2023-08-31T01:21:00;100165.47;;;12.65;100.00
36748;BME280;22716;51.556;5.080;2023-08-31T01:23:46;100151.75;;;12.54;100.00
36748;BME280;22716;51.556;5.080;2023-08-31T01:26:15;100163.88;;;12.59;100.00
36748;BME280;22716;51.556;5.080;2023-08-31T01:28:45;100172.66;;;12.58;100.00
36748;BME280;22716;51.556;5.080;2023-08-31T01:31:13;100164.97;;;12.52;100.00
36748;BME280;22716;51.556;5.080;2023-08-31T01:33:42;100173.75;;;12.51;100.00
36748;BME280;22716;51.556;5.080;2023-08-31T01:36:18;100168.56;;;12.48;100.00
36748;BME280;22716;51.556;5.080;2023-08-31T01:38:57;100172.13;;;12.47;100.00
36748;BME280;22716;51.556;5.080;2023-08-31T01:41:28;100186.06;;;12.49;100.00
36748;BME280;22716;51.556;5.080;2023-08-31T01:44:00;100176.44;;;12.50;100.00
36748;BME280;22716;51.556;5.080;2023-08-31T01:46:29;100179.00;;;12.51;100.00
36748;BME280;22716;51.556;5.080;2023-08-31T01:48:58;100178.09;;;12.52;100.00
36748;BME280;22716;51.556;5.080;2023-08-31T01:51:27;100185.00;;;12.56;100.00
36748;BME280;22716;51.556;5.080;2023-08-31T01:53:58;100186.69;;;12.59;100.00
36748;BME280;22716;51.556;5.080;2023-08-31T01:56:27;100189.25;;;12.60;100.00
36748;BME280;22716;51.556;5.080;2023-08-31T01:58:55;100177.03;;;12.59;100.00
36748;BME280;22716;51.556;5.080;2023-08-31T02:01:24;100174.34;;;12.61;100.00
36748;BME280;22716;51.556;5.080;2023-08-31T02:03:53;100186.31;;;12.71;100.00
36748;BME280;22716;51.556;5.080;2023-08-31T02:06:21;100177.59;;;12.69;100.00
36748;BME280;22716;51.556;5.080;2023-08-31T02:08:50;100181.91;;;12.71;100.00
36748;BME280;22716;51.556;5.080;2023-08-31T02:11:21;100165.31;;;12.69;100.00
36748;BME280;22716;51.556;5.080;2023-08-31T02:13:49;100172.13;;;12.76;100.00
36748;BME280;22716;51.556;5.080;2023-08-31T02:16:18;100169.63;;;12.72;100.00
36748;BME280;22716;51.556;5.080;2023-08-31T02:18:46;100169.78;;;12.67;100.00
36748;BME280;22716;51.556;5.080;2023-08-31T02:21:15;100169.72;;;12.69;100.00
36748;BME280;22716;51.556;5.080;2023-08-31T02:23:45;100169.91;;;12.63;100.00
36748;BME280;22716;51.556;5.080;2023-08-31T02:26:14;100184.00;;;12.60;100.00
36748;BME280;22716;51.556;5.080;2023-08-31T02:28:45;100178.88;;;12.56;100.00
36748;BME280;22716;51.556;5.080;2023-08-31T02:31:14;100184.22;;;12.53;100.00
36748;BME280;22716;51.556;5.080;2023-08-31T02:33:42;100185.97;;;12.52;100.00
36748;BME280;22716;51.556;5.080;2023-08-31T02:36:11;100182.63;;;12.47;100.00
36748;BME280;22716;51.556;5.080;2023-08-31T02:38:40;100179.22;;;12.44;100.00
36748;BME280;22716;51.556;5.080;2023-08-31T02:41:08;100183.69;;;12.40;100.00
36748;BME280;22716;51.556;5.080;2023-08-31T02:43:37;100178.44;;;12.40;100.00
36748;BME280;22716;51.556;5.080;2023-08-31T02:46:08;100181.97;;;12.39;100.00
36748;BME280;22716;51.556;5.080;2023-08-31T02:48:37;100183.78;;;12.37;100.00
36748;BME280;22716;51.556;5.080;2023-08-31T02:51:06;100164.03;;;12.24;100.00
36748;BME280;22716;51.556;5.080;2023-08-31T02:53:35;100175.25;;;12.29;100.00
36748;BME280;22716;51.556;5.080;2023-08-31T02:56:03;100182.13;;;12.33;100.00
36748;BME280;22716;51.556;5.080;2023-08-31T02:58:33;100177.88;;;12.29;100.00
36748;BME280;22716;51.556;5.080;2023-08-31T03:01:12;100178.69;;;12.31;100.00
36748;BME280;22716;51.556;5.080;2023-08-31T03:03:42;100170.00;;;12.29;100.00
36748;BME280;22716;51.556;5.080;2023-08-31T03:06:11;100173.63;;;12.25;100.00
36748;BME280;22716;51.556;5.080;2023-08-31T03:08:40;100171.06;;;12.22;100.00
36748;BME280;22716;51.556;5.080;2023-08-31T03:11:09;100168.53;;;12.19;100.00
36748;BME280;22716;51.556;5.080;2023-08-31T03:13:39;100180.78;;;12.20;100.00
36748;BME280;22716;51.556;5.080;2023-08-31T03:16:10;100172.09;;;12.18;100.00
36748;BME280;22716;51.556;5.080;2023-08-31T03:18:39;100176.41;;;12.19;100.00
36748;BME280;22716;51.556;5.080;2023-08-31T03:21:08;100186.97;;;12.17;100.00
36748;BME280;22716;51.556;5.080;2023-08-31T03:23:36;100174.00;;;12.11;100.00
36748;BME280;22716;51.556;5.080;2023-08-31T03:26:08;100179.19;;;12.14;100.00
36748;BME280;22716;51.556;5.080;2023-08-31T03:28:36;100174.91;;;12.10;100.00
36748;BME280;22716;51.556;5.080;2023-08-31T03:31:06;100180.22;;;12.09;100.00
36748;BME280;22716;51.556;5.080;2023-08-31T03:33:37;100169.72;;;12.07;100.00
36748;BME280;22716;51.556;5.080;2023-08-31T03:36:06;100179.34;;;12.08;100.00
36748;BME280;22716;51.556;5.080;2023-08-31T03:38:35;100182.00;;;12.07;100.00
36748;BME280;22716;51.556;5.080;2023-08-31T03:41:06;100174.97;;;12.09;100.00
36748;BME280;22716;51.556;5.080;2023-08-31T03:43:34;100173.28;;;12.06;100.00
36748;BME280;22716;51.556;5.080;2023-08-31T03:46:03;100177.59;;;12.07;100.00
36748;BME280;22716;51.556;5.080;2023-08-31T03:48:31;100175.03;;;12.06;100.00
36748;BME280;22716;51.556;5.080;2023-08-31T03:51:02;100174.19;;;12.04;100.00
36748;BME280;22716;51.556;5.080;2023-08-31T03:53:31;100171.56;;;12.04;100.00
36748;BME280;22716;51.556;5.080;2023-08-31T03:56:00;100184.59;;;12.08;100.00
36748;BME280;22716;51.556;5.080;2023-08-31T03:58:30;100176.75;;;12.07;100.00
36748;BME280;22716;51.556;5.080;2023-08-31T04:00:59;100169.81;;;12.04;100.00
36748;BME280;22716;51.556;5.080;2023-08-31T04:03:28;100176.78;;;12.05;100.00
36748;BME280;22716;51.556;5.080;2023-08-31T04:05:57;100175.03;;;12.06;100.00
36748;BME280;22716;51.556;5.080;2023-08-31T04:08:28;100174.19;;;12.04;100.00
36748;BME280;22716;51.556;5.080;2023-08-31T04:10:56;100170.72;;;12.03;100.00
36748;BME280;22716;51.556;5.080;2023-08-31T04:13:25;100172.41;;;12.06;100.00
36748;BME280;22716;51.556;5.080;2023-08-31T04:15:54;100181.16;;;12.06;100.00
36748;BME280;22716;51.556;5.080;2023-08-31T04:18:22;100191.69;;;12.05;100.00
36748;BME280;22716;51.556;5.080;2023-08-31T04:20:53;100187.31;;;12.04;100.00
36748;BME280;22716;51.556;5.080;2023-08-31T04:23:24;100188.25;;;12.03;100.00
36748;BME280;22716;51.556;5.080;2023-08-31T04:25:55;100198.66;;;12.06;100.00
36748;BME280;22716;51.556;5.080;2023-08-31T04:28:25;100200.44;;;12.05;100.00
36748;BME280;22716;51.556;5.080;2023-08-31T04:30:54;100194.31;;;12.05;100.00
36748;BME280;22716;51.556;5.080;2023-08-31T04:33:22;100191.75;;;12.03;100.00
36748;BME280;22716;51.556;5.080;2023-08-31T04:35:52;100202.41;;;11.97;100.00
36748;BME280;22716;51.556;5.080;2023-08-31T04:38:20;100199.63;;;12.02;100.00
36748;BME280;22716;51.556;5.080;2023-08-31T04:40:49;100201.41;;;12.01;100.00
36748;BME280;22716;51.556;5.080;2023-08-31T04:43:20;100192.72;;;11.99;100.00
36748;BME280;22716;51.556;5.080;2023-08-31T04:45:48;100198.78;;;12.01;100.00
36748;BME280;22716;51.556;5.080;2023-08-31T04:48:17;100213.56;;;12.04;100.00
36748;BME280;22716;51.556;5.080;2023-08-31T04:50:45;100211.88;;;12.03;100.00
36748;BME280;22716;51.556;5.080;2023-08-31T04:53:14;100216.19;;;12.05;100.00
36748;BME280;22716;51.556;5.080;2023-08-31T04:55:43;100217.84;;;12.09;100.00
36748;BME280;22716;51.556;5.080;2023-08-31T04:58:11;100215.16;;;12.11;100.00
36748;BME280;22716;51.556;5.080;2023-08-31T05:00:42;100220.31;;;12.14;100.00
36748;BME280;22716;51.556;5.080;2023-08-31T05:03:12;100231.63;;;12.16;100.00
36748;BME280;22716;51.556;5.080;2023-08-31T05:05:41;100223.91;;;12.11;100.00
36748;BME280;22716;51.556;5.080;2023-08-31T05:08:10;100222.13;;;12.12;100.00
36748;BME280;22716;51.556;5.080;2023-08-31T05:10:38;100222.91;;;12.15;100.00
36748;BME280;22716;51.556;5.080;2023-08-31T05:13:07;100220.25;;;12.15;100.00
36748;BME280;22716;51.556;5.080;2023-08-31T05:15:36;100234.25;;;12.17;100.00
36748;BME280;22716;51.556;5.080;2023-08-31T05:18:07;100227.25;;;12.16;100.00
36748;BME280;22716;51.556;5.080;2023-08-31T05:20:37;100236.88;;;12.17;100.00
36748;BME280;22716;51.556;5.080;2023-08-31T05:23:05;100245.53;;;12.21;100.00
36748;BME280;22716;51.556;5.080;2023-08-31T05:25:34;100235.91;;;12.20;100.00
36748;BME280;22716;51.556;5.080;2023-08-31T05:28:03;100241.09;;;12.23;100.00
36748;BME280;22716;51.556;5.080;2023-08-31T05:30:31;100235.78;;;12.24;100.00
36748;BME280;22716;51.556;5.080;2023-08-31T05:33:00;100247.06;;;12.29;100.00
36748;BME280;22716;51.556;5.080;2023-08-31T05:35:31;100248.66;;;12.33;100.00
36748;BME280;22716;51.556;5.080;2023-08-31T05:38:00;100256.53;;;12.35;100.00
36748;BME280;22716;51.556;5.080;2023-08-31T05:40:28;100248.72;;;12.32;100.00
36748;BME280;22716;51.556;5.080;2023-08-31T05:42:57;100261.66;;;12.40;100.00
36748;BME280;22716;51.556;5.080;2023-08-31T05:45:25;100265.94;;;12.44;100.00
36748;BME280;22716;51.556;5.080;2023-08-31T05:47:54;100264.00;;;12.50;100.00
36748;BME280;22716;51.556;5.080;2023-08-31T05:50:23;100265.59;;;12.56;100.00
36748;BME280;22716;51.556;5.080;2023-08-31T05:52:54;100264.47;;;12.64;100.00
36748;BME280;22716;51.556;5.080;2023-08-31T05:55:23;100266.97;;;12.69;100.00
36748;BME280;22716;51.556;5.080;2023-08-31T05:57:52;100270.47;;;12.69;100.00
36748;BME280;22716;51.556;5.080;2023-08-31T06:00:20;100269.41;;;12.76;100.00
36748;BME280;22716;51.556;5.080;2023-08-31T06:02:49;100269.13;;;12.85;100.00
36748;BME280;22716;51.556;5.080;2023-08-31T06:05:18;100282.84;;;12.95;100.00
36748;BME280;22716;51.556;5.080;2023-08-31T06:07:46;100279.28;;;12.98;100.00
36748;BME280;22716;51.556;5.080;2023-08-31T06:10:18;100288.56;;;13.11;100.00
36748;BME280;22716;51.556;5.080;2023-08-31T06:12:48;100280.22;;;13.26;100.00
36748;BME280;22716;51.556;5.080;2023-08-31T06:15:17;100289.56;;;13.36;100.00
36748;BME280;22716;51.556;5.080;2023-08-31T06:17:46;100293.06;;;13.64;100.00
36748;BME280;22716;51.556;5.080;2023-08-31T06:20:15;100291.94;;;13.71;100.00
36748;BME280;22716;51.556;5.080;2023-08-31T06:22:43;100298.25;;;13.67;100.00
36748;BME280;22716;51.556;5.080;2023-08-31T06:25:12;100302.56;;;13.68;100.00
36748;BME280;22716;51.556;5.080;2023-08-31T06:27:45;100302.53;;;13.70;100.00
36748;BME280;22716;51.556;5.080;2023-08-31T06:30:14;100304.22;;;13.72;100.00
36748;BME280;22716;51.556;5.080;2023-08-31T06:32:45;100308.47;;;13.76;100.00
36748;BME280;22716;51.556;5.080;2023-08-31T06:35:16;100309.22;;;13.80;100.00
36748;BME280;22716;51.556;5.080;2023-08-31T06:37:45;100310.00;;;13.83;100.00
36748;BME280;22716;51.556;5.080;2023-08-31T06:40:16;100309.78;;;13.89;100.00
36748;BME280;22716;51.556;5.080;2023-08-31T06:42:47;100300.78;;;13.96;100.00
36748;BME280;22716;51.556;5.080;2023-08-31T06:45:16;100300.41;;;14.09;100.00
36748;BME280;22716;51.556;5.080;2023-08-31T06:47:44;100306.81;;;14.26;100.00
36748;BME280;22716;51.556;5.080;2023-08-31T06:50:13;100310.63;;;14.44;100.00
36748;BME280;22716;51.556;5.080;2023-08-31T06:52:42;100310.25;;;14.79;100.00
36748;BME280;22716;51.556;5.080;2023-08-31T06:55:12;100317.91;;;15.10;100.00
36748;BME280;22716;51.556;5.080;2023-08-31T06:57:41;100326.44;;;15.17;100.00
36748;BME280;22716;51.556;5.080;2023-08-31T07:00:14;100316.25;;;15.07;100.00
36748;BME280;22716;51.556;5.080;2023-08-31T07:02:43;100320.84;;;15.02;100.00
36748;BME280;22716;51.556;5.080;2023-08-31T07:05:12;100322.81;;;14.96;100.00
36748;BME280;22716;51.556;5.080;2023-08-31T07:07:41;100334.19;;;14.98;100.00
36748;BME280;22716;51.556;5.080;2023-08-31T07:10:10;100332.88;;;15.09;100.00
36748;BME280;22716;51.556;5.080;2023-08-31T07:12:38;100335.16;;;15.19;100.00
36748;BME280;22716;51.556;5.080;2023-08-31T07:15:07;100340.25;;;15.48;100.00
36748;BME280;22716;51.556;5.080;2023-08-31T07:17:39;100335.03;;;15.68;100.00
36748;BME280;22716;51.556;5.080;2023-08-31T07:20:09;100338.63;;;15.67;100.00
36748;BME280;22716;51.556;5.080;2023-08-31T07:22:38;100338.75;;;15.64;100.00
36748;BME280;22716;51.556;5.080;2023-08-31T07:25:08;100339.09;;;15.77;100.00
36748;BME280;22716;51.556;5.080;2023-08-31T07:27:37;100337.69;;;15.68;100.00
36748;BME280;22716;51.556;5.080;2023-08-31T07:30:07;100345.59;;;15.68;100.00
36748;BME280;22716;51.556;5.080;2023-08-31T07:32:36;100345.69;;;15.66;100.00
36748;BME280;22716;51.556;5.080;2023-08-31T07:35:08;100343.91;;;15.67;100.00
36748;BME280;22716;51.556;5.080;2023-08-31T07:37:36;100344.03;;;15.64;100.00
36748;BME280;22716;51.556;5.080;2023-08-31T07:40:07;100345.50;;;15.71;100.00
36748;BME280;22716;51.556;5.080;2023-08-31T07:42:36;100312.56;;;15.58;100.00
36748;BME280;22716;51.556;5.080;2023-08-31T07:45:06;100339.69;;;15.85;100.00
36748;BME280;22716;51.556;5.080;2023-08-31T07:47:35;100349.03;;;15.93;100.00
36748;BME280;22716;51.556;5.080;2023-08-31T07:50:07;100338.09;;;16.02;100.00
36748;BME280;22716;51.556;5.080;2023-08-31T07:52:37;100349.44;;;16.04;100.00
36748;BME280;22716;51.556;5.080;2023-08-31T07:55:07;100343.50;;;15.99;100.00
36748;BME280;22716;51.556;5.080;2023-08-31T07:57:36;100344.94;;;16.06;100.00
36748;BME280;22716;51.556;5.080;2023-08-31T08:00:06;100357.00;;;16.13;100.00
36748;BME280;22716;51.556;5.080;2023-08-31T08:02:35;100355.22;;;16.14;100.00
36748;BME280;22716;51.556;5.080;2023-08-31T08:05:07;100355.69;;;16.23;100.00
36748;BME280;22716;51.556;5.080;2023-08-31T08:07:35;100358.88;;;16.32;100.00
36748;BME280;22716;51.556;5.080;2023-08-31T08:10:05;100357.09;;;16.32;100.00
36748;BME280;22716;51.556;5.080;2023-08-31T08:12:38;100356.00;;;16.38;100.00
36748;BME280;22716;51.556;5.080;2023-08-31T08:15:09;100362.72;;;16.45;100.00
36748;BME280;22716;51.556;5.080;2023-08-31T08:17:38;100362.38;;;16.54;100.00
36748;BME280;22716;51.556;5.080;2023-08-31T08:20:11;100367.28;;;16.63;100.00
36748;BME280;22716;51.556;5.080;2023-08-31T08:22:39;100370.44;;;16.71;100.00
36748;BME280;22716;51.556;5.080;2023-08-31T08:25:09;100365.88;;;16.74;100.00
36748;BME280;22716;51.556;5.080;2023-08-31T08:27:37;100372.69;;;16.80;100.00
36748;BME280;22716;51.556;5.080;2023-08-31T08:30:07;100369.59;;;16.91;100.00
36748;BME280;22716;51.556;5.080;2023-08-31T08:32:35;100382.34;;;17.01;100.00
36748;BME280;22716;51.556;5.080;2023-08-31T08:35:05;100384.50;;;17.12;100.00
36748;BME280;22716;51.556;5.080;2023-08-31T08:37:36;100385.19;;;17.17;100.00
36748;BME280;22716;51.556;5.080;2023-08-31T08:40:07;100389.69;;;17.15;100.00
36748;BME280;22716;51.556;5.080;2023-08-31T08:42:39;100387.63;;;17.21;100.00
36748;BME280;22716;51.556;5.080;2023-08-31T08:45:13;100385.25;;;17.15;100.00
36748;BME280;22716;51.556;5.080;2023-08-31T08:47:43;100395.66;;;17.20;100.00
36748;BME280;22716;51.556;5.080;2023-08-31T08:50:13;100395.06;;;17.32;100.00
36748;BME280;22716;51.556;5.080;2023-08-31T08:52:45;100396.63;;;17.38;100.00
36748;BME280;22716;51.556;5.080;2023-08-31T08:55:15;100390.22;;;17.42;100.00
36748;BME280;22716;51.556;5.080;2023-08-31T08:57:45;100399.81;;;17.44;100.00
36748;BME280;22716;51.556;5.080;2023-08-31T09:00:14;100401.47;;;17.47;100.00
36748;BME280;22716;51.556;5.080;2023-08-31T09:02:43;100402.31;;;17.47;100.00
36748;BME280;22716;51.556;5.080;2023-08-31T09:05:13;100388.66;;;17.38;100.00
36748;BME280;22716;51.556;5.080;2023-08-31T09:08:05;100403.00;;;17.52;100.00
36748;BME280;22716;51.556;5.080;2023-08-31T09:10:37;100417.84;;;17.56;100.00
36748;BME280;22716;51.556;5.080;2023-08-31T09:13:07;100407.25;;;17.56;100.00
36748;BME280;22716;51.556;5.080;2023-08-31T09:15:39;100410.38;;;17.64;100.00
36748;BME280;22716;51.556;5.080;2023-08-31T09:18:13;100410.53;;;17.61;100.00
36748;BME280;22716;51.556;5.080;2023-08-31T09:20:44;100410.25;;;17.67;100.00
36748;BME280;22716;51.556;5.080;2023-08-31T09:23:16;100416.94;;;17.76;100.00
36748;BME280;22716;51.556;5.080;2023-08-31T09:25:46;100408.03;;;17.77;100.00
36748;BME280;22716;51.556;5.080;2023-08-31T09:28:15;100419.06;;;17.86;100.00
36748;BME280;22716;51.556;5.080;2023-08-31T09:30:46;100421.78;;;17.85;100.00
36748;BME280;22716;51.556;5.080;2023-08-31T09:33:16;100422.00;;;17.80;100.00
36748;BME280;22716;51.556;5.080;2023-08-31T09:35:48;100418.78;;;17.74;100.00
36748;BME280;22716;51.556;5.080;2023-08-31T09:38:20;100414.28;;;17.76;100.00
36748;BME280;22716;51.556;5.080;2023-08-31T09:40:49;100418.34;;;17.83;100.00
36748;BME280;22716;51.556;5.080;2023-08-31T09:43:23;100423.00;;;17.97;100.00
36748;BME280;22716;51.556;5.080;2023-08-31T09:45:52;100414.63;;;18.06;100.00
36748;BME280;22716;51.556;5.080;2023-08-31T09:48:22;100420.63;;;18.09;100.00
36748;BME280;22716;51.556;5.080;2023-08-31T09:50:52;100414.91;;;18.00;100.00
36748;BME280;22716;51.556;5.080;2023-08-31T09:53:24;100417.84;;;17.93;100.00
36748;BME280;22716;51.556;5.080;2023-08-31T09:55:54;100408.53;;;17.85;100.00
36748;BME280;22716;51.556;5.080;2023-08-31T09:58:23;100407.13;;;17.78;100.00
36748;BME280;22716;51.556;5.080;2023-08-31T10:00:52;100404.03;;;17.87;100.00
36748;BME280;22716;51.556;5.080;2023-08-31T10:03:21;100416.88;;;17.96;100.00
36748;BME280;22716;51.556;5.080;2023-08-31T10:05:50;100416.56;;;18.02;100.00
36748;BME280;22716;51.556;5.080;2023-08-31T10:08:19;100412.69;;;18.09;100.00
36748;BME280;22716;51.556;5.080;2023-08-31T10:10:53;100419.28;;;18.19;100.00
36748;BME280;22716;51.556;5.080;2023-08-31T10:13:22;100422.09;;;18.33;100.00
36748;BME280;22716;51.556;5.080;2023-08-31T10:15:52;100411.06;;;18.42;100.00
36748;BME280;22716;51.556;5.080;2023-08-31T10:18:22;100405.22;;;18.53;100.00
36748;BME280;22716;51.556;5.080;2023-08-31T10:20:52;100399.94;;;18.53;100.00
36748;BME280;22716;51.556;5.080;2023-08-31T10:23:21;100395.72;;;18.49;100.00
36748;BME280;22716;51.556;5.080;2023-08-31T10:26:02;100411.56;;;18.51;100.00
36748;BME280;22716;51.556;5.080;2023-08-31T10:28:41;100404.47;;;18.51;100.00
36748;BME280;22716;51.556;5.080;2023-08-31T10:31:15;100404.16;;;18.57;100.00
36748;BME280;22716;51.556;5.080;2023-08-31T10:33:45;100395.94;;;18.62;100.00
36748;BME280;22716;51.556;5.080;2023-08-31T10:36:16;100393.00;;;18.68;100.00
36748;BME280;22716;51.556;5.080;2023-08-31T10:38:46;100399.88;;;18.72;100.00
36748;BME280;22716;51.556;5.080;2023-08-31T10:41:22;100400.50;;;18.77;100.00
36748;BME280;22716;51.556;5.080;2023-08-31T10:43:52;100413.69;;;18.78;100.00
36748;BME280;22716;51.556;5.080;2023-08-31T10:46:33;100407.22;;;18.84;100.00
36748;BME280;22716;51.556;5.080;2023-08-31T10:49:13;100411.97;;;18.94;100.00
36748;BME280;22716;51.556;5.080;2023-08-31T10:51:44;100412.56;;;18.99;100.00
36748;BME280;22716;51.556;5.080;2023-08-31T10:54:20;100392.91;;;19.03;100.00
36748;BME280;22716;51.556;5.080;2023-08-31T10:57:04;100391.88;;;19.06;100.00
36748;BME280;22716;51.556;5.080;2023-08-31T10:59:44;100394.31;;;19.11;100.00
36748;BME280;22716;51.556;5.080;2023-08-31T11:02:28;100396.66;;;19.17;100.00
36748;BME280;22716;51.556;5.080;2023-08-31T11:05:01;100390.91;;;19.24;100.00
36748;BME280;22716;51.556;5.080;2023-08-31T11:07:33;100393.78;;;19.37;100.00
36748;BME280;22716;51.556;5.080;2023-08-31T11:10:08;100386.19;;;19.46;100.00
36748;BME280;22716;51.556;5.080;2023-08-31T11:12:40;100403.38;;;19.56;98.24
36748;BME280;22716;51.556;5.080;2023-08-31T11:15:11;100404.59;;;19.67;98.06
36748;BME280;22716;51.556;5.080;2023-08-31T11:17:41;100390.69;;;19.62;96.40
36748;BME280;22716;51.556;5.080;2023-08-31T11:20:13;100389.97;;;19.58;95.50
36748;BME280;22716;51.556;5.080;2023-08-31T11:22:44;100392.13;;;19.51;94.65
36748;BME280;22716;51.556;5.080;2023-08-31T11:25:16;100389.72;;;19.47;95.19
36748;BME280;22716;51.556;5.080;2023-08-31T11:27:59;100389.28;;;19.39;94.73
36748;BME280;22716;51.556;5.080;2023-08-31T11:30:30;100391.47;;;19.31;95.46
36748;BME280;22716;51.556;5.080;2023-08-31T11:33:02;100373.34;;;19.22;96.30
36748;BME280;22716;51.556;5.080;2023-08-31T11:35:33;100398.34;;;19.18;97.50
36748;BME280;22716;51.556;5.080;2023-08-31T11:38:02;100396.91;;;18.95;99.96
36748;BME280;22716;51.556;5.080;2023-08-31T11:40:31;100414.38;;;18.82;100.00
36748;BME280;22716;51.556;5.080;2023-08-31T11:43:04;100414.22;;;18.68;100.00
36748;BME280;22716;51.556;5.080;2023-08-31T11:45:34;100405.91;;;18.39;100.00
36748;BME280;22716;51.556;5.080;2023-08-31T11:48:05;100407.03;;;18.17;100.00
36748;BME280;22716;51.556;5.080;2023-08-31T11:50:34;100408.47;;;18.05;100.00
36748;BME280;22716;51.556;5.080;2023-08-31T11:53:05;100412.25;;;18.00;100.00
36748;BME280;22716;51.556;5.080;2023-08-31T11:55:33;100408.38;;;17.88;100.00
36748;BME280;22716;51.556;5.080;2023-08-31T11:58:07;100403.69;;;17.76;100.00
36748;BME280;22716;51.556;5.080;2023-08-31T12:00:36;100402.69;;;17.78;100.00
36748;BME280;22716;51.556;5.080;2023-08-31T12:03:08;100404.47;;;17.78;100.00
36748;BME280;22716;51.556;5.080;2023-08-31T12:05:46;100418.34;;;17.83;100.00
36748;BME280;22716;51.556;5.080;2023-08-31T12:08:24;100420.16;;;17.82;100.00
36748;BME280;22716;51.556;5.080;2023-08-31T12:10:53;100416.44;;;17.86;100.00
36748;BME280;22716;51.556;5.080;2023-08-31T12:13:25;100427.94;;;17.85;100.00
36748;BME280;22716;51.556;5.080;2023-08-31T12:15:55;100418.34;;;17.83;100.00
36748;BME280;22716;51.556;5.080;2023-08-31T12:18:24;100417.34;;;17.85;100.00
36748;BME280;22716;51.556;5.080;2023-08-31T12:20:52;100439.41;;;17.86;100.00
36748;BME280;22716;51.556;5.080;2023-08-31T12:23:22;100428.31;;;17.78;100.00
36748;BME280;22716;51.556;5.080;2023-08-31T12:25:52;100432.59;;;17.62;100.00
36748;BME280;22716;51.556;5.080;2023-08-31T12:28:25;100441.53;;;17.59;100.00
36748;BME280;22716;51.556;5.080;2023-08-31T12:30:54;100440.53;;;17.42;100.00
36748;BME280;22716;51.556;5.080;2023-08-31T12:33:24;100435.38;;;17.20;100.00
36748;BME280;22716;51.556;5.080;2023-08-31T12:35:53;100456.94;;;17.11;100.00
36748;BME280;22716;51.556;5.080;2023-08-31T12:38:21;100449.91;;;16.90;100.00
36748;BME280;22716;51.556;5.080;2023-08-31T12:40:50;100438.09;;;16.76;100.00
36748;BME280;22716;51.556;5.080;2023-08-31T12:43:18;100441.00;;;16.70;100.00
36748;BME280;22716;51.556;5.080;2023-08-31T12:45:49;100437.41;;;16.73;100.00
36748;BME280;22716;51.556;5.080;2023-08-31T12:48:18;100432.28;;;16.68;100.00
36748;BME280;22716;51.556;5.080;2023-08-31T12:50:46;100422.69;;;16.66;100.00
36748;BME280;22716;51.556;5.080;2023-08-31T12:53:16;100426.81;;;16.73;100.00
36748;BME280;22716;51.556;5.080;2023-08-31T12:55:44;100421.41;;;16.76;100.00